sensor_id;sensor_type;location;lat;lon;timestamp;temperature;humidity
14378;DHT22;7272;53.668;9.578;2022-09-12T00:02:06;13.60;99.90
14378;DHT22;7272;53.668;9.578;2022-09-12T00:05:08;13.60;99.90
14378;DHT22;7272;53.668;9.578;2022-09-12T00:08:12;13.70;99.90
14378;DHT22;7272;53.668;9.578;2022-09-12T00:11:14;13.60;99.90
14378;DHT22;7272;53.668;9.578;2022-09-12T00:14:17;13.60;99.90
14378;DHT22;7272;53.668;9.578;2022-09-12T00:17:19;13.60;99.90
14378;DHT22;7272;53.668;9.578;2022-09-12T00:20:21;13.60;99.90
14378;DHT22;7272;53.668;9.578;2022-09-12T00:23:24;13.50;99.90
14378;DHT22;7272;53.668;9.578;2022-09-12T00:26:26;13.70;99.90
14378;DHT22;7272;53.668;9.578;2022-09-12T00:29:28;13.70;99.90
14378;DHT22;7272;53.668;9.578;2022-09-12T00:32:30;13.70;99.90
14378;DHT22;7272;53.668;9.578;2022-09-12T00:35:32;13.60;99.90
14378;DHT22;7272;53.668;9.578;2022-09-12T00:38:35;13.60;99.90
14378;DHT22;7272;53.668;9.578;2022-09-12T00:41:41;13.50;99.90
14378;DHT22;7272;53.668;9.578;2022-09-12T00:44:49;13.40;99.90
14378;DHT22;7272;53.668;9.578;2022-09-12T00:47:51;13.30;99.90
14378;DHT22;7272;53.668;9.578;2022-09-12T00:50:54;13.40;99.90
14378;DHT22;7272;53.668;9.578;2022-09-12T00:53:58;13.30;99.90
14378;DHT22;7272;53.668;9.578;2022-09-12T00:57:03;13.30;99.90
14378;DHT22;7272;53.668;9.578;2022-09-12T01:00:09;13.30;99.90
14378;DHT22;7272;53.668;9.578;2022-09-12T01:03:17;13.20;99.90
14378;DHT22;7272;53.668;9.578;2022-09-12T01:06:23;13.10;99.90
14378;DHT22;7272;53.668;9.578;2022-09-12T01:09:28;13.00;99.90
14378;DHT22;7272;53.668;9.578;2022-09-12T01:12:30;13.00;99.90
14378;DHT22;7272;53.668;9.578;2022-09-12T01:15:33;13.00;99.90
14378;DHT22;7272;53.668;9.578;2022-09-12T01:18:48;13.00;99.90
14378;DHT22;7272;53.668;9.578;2022-09-12T01:22:07;12.90;99.90
14378;DHT22;7272;53.668;9.578;2022-09-12T01:25:21;12.90;99.90
14378;DHT22;7272;53.668;9.578;2022-09-12T01:28:43;12.80;99.90
14378;DHT22;7272;53.668;9.578;2022-09-12T01:31:58;12.90;99.90
14378;DHT22;7272;53.668;9.578;2022-09-12T01:35:06;12.90;99.90
14378;DHT22;7272;53.668;9.578;2022-09-12T01:38:22;13.00;99.90
14378;DHT22;7272;53.668;9.578;2022-09-12T01:41:29;13.10;99.90
14378;DHT22;7272;53.668;9.578;2022-09-12T01:44:37;13.10;99.90
14378;DHT22;7272;53.668;9.578;2022-09-12T01:47:45;13.00;99.90
14378;DHT22;7272;53.668;9.578;2022-09-12T01:50:51;12.90;99.90
14378;DHT22;7272;53.668;9.578;2022-09-12T01:53:58;12.90;99.90
14378;DHT22;7272;53.668;9.578;2022-09-12T01:57:09;12.80;99.90
14378;DHT22;7272;53.668;9.578;2022-09-12T02:00:13;12.80;99.90
14378;DHT22;7272;53.668;9.578;2022-09-12T02:03:19;12.80;99.90
14378;DHT22;7272;53.668;9.578;2022-09-12T02:06:26;12.80;99.90
14378;DHT22;7272;53.668;9.578;2022-09-12T02:09:35;12.80;99.90
14378;DHT22;7272;53.668;9.578;2022-09-12T02:12:42;12.80;99.90
14378;DHT22;7272;53.668;9.578;2022-09-12T02:15:51;12.70;99.90
14378;DHT22;7272;53.668;9.578;2022-09-12T02:18:58;12.70;99.90
14378;DHT22;7272;53.668;9.578;2022-09-12T02:22:03;12.70;99.90
14378;DHT22;7272;53.668;9.578;2022-09-12T02:25:07;12.70;99.90
14378;DHT22;7272;53.668;9.578;2022-09-12T02:28:14;12.80;99.90
14378;DHT22;7272;53.668;9.578;2022-09-12T02:31:22;13.00;99.90
14378;DHT22;7272;53.668;9.578;2022-09-12T02:34:38;12.90;99.90
14378;DHT22;7272;53.668;9.578;2022-09-12T02:37:52;12.90;99.90
14378;DHT22;7272;53.668;9.578;2022-09-12T02:40:56;12.80;99.90
14378;DHT22;7272;53.668;9.578;2022-09-12T02:43:58;12.80;99.90
14378;DHT22;7272;53.668;9.578;2022-09-12T02:47:03;12.70;99.90
14378;DHT22;7272;53.668;9.578;2022-09-12T02:50:08;12.70;99.90
14378;DHT22;7272;53.668;9.578;2022-09-12T02:53:10;12.80;99.90
14378;DHT22;7272;53.668;9.578;2022-09-12T02:56:17;13.00;99.90
14378;DHT22;7272;53.668;9.578;2022-09-12T02:59:22;12.90;99.90
14378;DHT22;7272;53.668;9.578;2022-09-12T03:02:31;12.80;99.90
14378;DHT22;7272;53.668;9.578;2022-09-12T03:05:39;12.80;99.90
14378;DHT22;7272;53.668;9.578;2022-09-12T03:08:54;12.80;99.90
14378;DHT22;7272;53.668;9.578;2022-09-12T03:12:10;12.70;99.90
14378;DHT22;7272;53.668;9.578;2022-09-12T03:15:25;12.70;99.90
14378;DHT22;7272;53.668;9.578;2022-09-12T03:18:39;12.70;99.90
14378;DHT22;7272;53.668;9.578;2022-09-12T03:21:53;12.80;99.90
14378;DHT22;7272;53.668;9.578;2022-09-12T03:25:03;12.80;99.90
14378;DHT22;7272;53.668;9.578;2022-09-12T03:28:08;12.70;99.90
14378;DHT22;7272;53.668;9.578;2022-09-12T03:31:13;12.70;99.90
14378;DHT22;7272;53.668;9.578;2022-09-12T03:34:15;12.60;99.90
14378;DHT22;7272;53.668;9.578;2022-09-12T03:37:19;12.60;99.90
14378;DHT22;7272;53.668;9.578;2022-09-12T03:40:21;12.50;99.90
14378;DHT22;7272;53.668;9.578;2022-09-12T03:43:23;12.50;99.90
14378;DHT22;7272;53.668;9.578;2022-09-12T03:46:24;12.50;99.90
14378;DHT22;7272;53.668;9.578;2022-09-12T03:49:26;12.50;99.90
14378;DHT22;7272;53.668;9.578;2022-09-12T03:52:29;12.50;99.90
14378;DHT22;7272;53.668;9.578;2022-09-12T03:55:31;12.50;99.90
14378;DHT22;7272;53.668;9.578;2022-09-12T03:58:34;12.40;99.90
14378;DHT22;7272;53.668;9.578;2022-09-12T04:01:36;12.40;99.90
14378;DHT22;7272;53.668;9.578;2022-09-12T04:04:40;12.40;99.90
14378;DHT22;7272;53.668;9.578;2022-09-12T04:07:44;12.40;99.90
14378;DHT22;7272;53.668;9.578;2022-09-12T04:10:45;12.30;99.90
14378;DHT22;7272;53.668;9.578;2022-09-12T04:13:47;12.30;99.90
14378;DHT22;7272;53.668;9.578;2022-09-12T04:16:49;12.30;99.90
14378;DHT22;7272;53.668;9.578;2022-09-12T04:19:51;12.40;99.90
14378;DHT22;7272;53.668;9.578;2022-09-12T04:22:54;12.30;99.90
14378;DHT22;7272;53.668;9.578;2022-09-12T04:25:57;12.40;99.90
14378;DHT22;7272;53.668;9.578;2022-09-12T04:29:00;12.40;99.90
14378;DHT22;7272;53.668;9.578;2022-09-12T04:32:02;12.40;99.90
14378;DHT22;7272;53.668;9.578;2022-09-12T04:35:04;12.40;99.90
14378;DHT22;7272;53.668;9.578;2022-09-12T04:38:08;12.40;99.90
14378;DHT22;7272;53.668;9.578;2022-09-12T04:41:10;12.40;99.90
14378;DHT22;7272;53.668;9.578;2022-09-12T04:44:13;12.40;99.90
14378;DHT22;7272;53.668;9.578;2022-09-12T04:47:15;12.40;99.90
14378;DHT22;7272;53.668;9.578;2022-09-12T04:50:18;12.50;99.90
14378;DHT22;7272;53.668;9.578;2022-09-12T04:53:21;12.40;99.90
14378;DHT22;7272;53.668;9.578;2022-09-12T04:56:23;12.40;99.90
14378;DHT22;7272;53.668;9.578;2022-09-12T04:59:25;12.40;99.90
14378;DHT22;7272;53.668;9.578;2022-09-12T05:02:27;12.40;99.90
14378;DHT22;7272;53.668;9.578;2022-09-12T05:05:29;12.50;99.90
14378;DHT22;7272;53.668;9.578;2022-09-12T05:08:32;12.50;99.90
14378;DHT22;7272;53.668;9.578;2022-09-12T05:11:37;12.50;99.90
14378;DHT22;7272;53.668;9.578;2022-09-12T05:14:39;12.50;99.90
14378;DHT22;7272;53.668;9.578;2022-09-12T05:17:41;12.60;99.90
14378;DHT22;7272;53.668;9.578;2022-09-12T05:20:43;12.60;99.90
14378;DHT22;7272;53.668;9.578;2022-09-12T05:23:46;12.60;99.90
14378;DHT22;7272;53.668;9.578;2022-09-12T05:26:51;12.60;99.90
14378;DHT22;7272;53.668;9.578;2022-09-12T05:29:53;12.60;99.90
14378;DHT22;7272;53.668;9.578;2022-09-12T05:32:54;12.60;99.90
14378;DHT22;7272;53.668;9.578;2022-09-12T05:35:57;12.60;99.90
14378;DHT22;7272;53.668;9.578;2022-09-12T05:39:00;12.70;99.90
14378;DHT22;7272;53.668;9.578;2022-09-12T05:42:02;12.70;99.90
14378;DHT22;7272;53.668;9.578;2022-09-12T05:45:05;12.70;99.90
14378;DHT22;7272;53.668;9.578;2022-09-12T05:48:08;12.80;99.90
14378;DHT22;7272;53.668;9.578;2022-09-12T05:51:11;12.80;99.90
14378;DHT22;7272;53.668;9.578;2022-09-12T05:54:16;12.90;99.90
14378;DHT22;7272;53.668;9.578;2022-09-12T05:57:18;12.90;99.90
14378;DHT22;7272;53.668;9.578;2022-09-12T06:00:20;12.90;99.90
14378;DHT22;7272;53.668;9.578;2022-09-12T06:03:22;12.90;99.90
14378;DHT22;7272;53.668;9.578;2022-09-12T06:06:25;12.90;99.90
14378;DHT22;7272;53.668;9.578;2022-09-12T06:09:28;13.00;99.90
14378;DHT22;7272;53.668;9.578;2022-09-12T06:12:30;13.10;99.90
14378;DHT22;7272;53.668;9.578;2022-09-12T06:15:32;13.20;99.90
14378;DHT22;7272;53.668;9.578;2022-09-12T06:18:35;13.30;99.90
14378;DHT22;7272;53.668;9.578;2022-09-12T06:21:37;13.30;99.90
14378;DHT22;7272;53.668;9.578;2022-09-12T06:24:41;13.40;99.90
14378;DHT22;7272;53.668;9.578;2022-09-12T06:27:43;13.50;99.90
14378;DHT22;7272;53.668;9.578;2022-09-12T06:30:46;13.60;99.90
14378;DHT22;7272;53.668;9.578;2022-09-12T06:33:50;13.70;99.90
14378;DHT22;7272;53.668;9.578;2022-09-12T06:36:52;13.90;99.90
14378;DHT22;7272;53.668;9.578;2022-09-12T06:39:55;14.00;99.90
14378;DHT22;7272;53.668;9.578;2022-09-12T06:42:57;14.20;99.90
14378;DHT22;7272;53.668;9.578;2022-09-12T06:46:08;14.40;99.90
14378;DHT22;7272;53.668;9.578;2022-09-12T06:49:11;14.60;99.90
14378;DHT22;7272;53.668;9.578;2022-09-12T06:52:13;14.70;99.90
14378;DHT22;7272;53.668;9.578;2022-09-12T06:55:16;14.90;99.90
14378;DHT22;7272;53.668;9.578;2022-09-12T06:58:18;15.00;99.90
14378;DHT22;7272;53.668;9.578;2022-09-12T07:01:21;15.10;99.90
14378;DHT22;7272;53.668;9.578;2022-09-12T07:04:23;15.30;99.90
14378;DHT22;7272;53.668;9.578;2022-09-12T07:07:25;15.40;99.90
14378;DHT22;7272;53.668;9.578;2022-09-12T07:10:28;15.60;99.90
14378;DHT22;7272;53.668;9.578;2022-09-12T07:13:31;15.70;99.90
14378;DHT22;7272;53.668;9.578;2022-09-12T07:16:34;15.80;99.90
14378;DHT22;7272;53.668;9.578;2022-09-12T07:19:36;15.90;99.90
14378;DHT22;7272;53.668;9.578;2022-09-12T07:22:38;16.20;99.90
14378;DHT22;7272;53.668;9.578;2022-09-12T07:25:42;16.40;99.90
14378;DHT22;7272;53.668;9.578;2022-09-12T07:28:44;16.50;99.90
14378;DHT22;7272;53.668;9.578;2022-09-12T07:31:46;16.70;99.90
14378;DHT22;7272;53.668;9.578;2022-09-12T07:34:48;16.70;99.90
14378;DHT22;7272;53.668;9.578;2022-09-12T07:37:50;16.90;99.90
14378;DHT22;7272;53.668;9.578;2022-09-12T07:40:53;17.40;99.90
14378;DHT22;7272;53.668;9.578;2022-09-12T07:43:56;17.80;99.90
14378;DHT22;7272;53.668;9.578;2022-09-12T07:46:59;18.10;99.90
14378;DHT22;7272;53.668;9.578;2022-09-12T07:50:01;18.50;99.90
14378;DHT22;7272;53.668;9.578;2022-09-12T07:53:03;18.80;99.90
14378;DHT22;7272;53.668;9.578;2022-09-12T07:56:08;19.10;99.90
14378;DHT22;7272;53.668;9.578;2022-09-12T07:59:10;19.30;99.90
14378;DHT22;7272;53.668;9.578;2022-09-12T08:02:13;19.40;99.90
14378;DHT22;7272;53.668;9.578;2022-09-12T08:05:15;19.60;99.90
14378;DHT22;7272;53.668;9.578;2022-09-12T08:08:16;19.70;99.90
14378;DHT22;7272;53.668;9.578;2022-09-12T08:11:21;19.80;99.90
14378;DHT22;7272;53.668;9.578;2022-09-12T08:14:23;19.90;99.90
14378;DHT22;7272;53.668;9.578;2022-09-12T08:17:25;20.00;99.90
14378;DHT22;7272;53.668;9.578;2022-09-12T08:20:28;20.00;99.90
14378;DHT22;7272;53.668;9.578;2022-09-12T08:23:31;20.10;99.90
14378;DHT22;7272;53.668;9.578;2022-09-12T08:26:34;20.20;99.90
14378;DHT22;7272;53.668;9.578;2022-09-12T08:29:36;20.20;99.90
14378;DHT22;7272;53.668;9.578;2022-09-12T08:32:38;20.30;99.90
14378;DHT22;7272;53.668;9.578;2022-09-12T08:35:40;20.30;99.90
14378;DHT22;7272;53.668;9.578;2022-09-12T08:38:43;20.30;99.90
14378;DHT22;7272;53.668;9.578;2022-09-12T08:41:48;20.20;99.90
14378;DHT22;7272;53.668;9.578;2022-09-12T08:45:04;20.30;99.90
14378;DHT22;7272;53.668;9.578;2022-09-12T08:48:10;20.30;99.90
14378;DHT22;7272;53.668;9.578;2022-09-12T08:51:14;20.30;99.90
14378;DHT22;7272;53.668;9.578;2022-09-12T08:54:20;20.30;99.90
14378;DHT22;7272;53.668;9.578;2022-09-12T08:57:26;20.30;99.90
14378;DHT22;7272;53.668;9.578;2022-09-12T09:00:37;20.40;99.90
14378;DHT22;7272;53.668;9.578;2022-09-12T09:04:01;20.50;99.90
14378;DHT22;7272;53.668;9.578;2022-09-12T09:07:24;20.50;99.90
14378;DHT22;7272;53.668;9.578;2022-09-12T09:10:35;20.70;99.90
14378;DHT22;7272;53.668;9.578;2022-09-12T09:13:51;20.80;99.90
14378;DHT22;7272;53.668;9.578;2022-09-12T09:17:16;20.80;99.90
14378;DHT22;7272;53.668;9.578;2022-09-12T09:20:37;20.90;99.90
14378;DHT22;7272;53.668;9.578;2022-09-12T09:23:47;20.90;99.90
14378;DHT22;7272;53.668;9.578;2022-09-12T09:26:55;20.90;99.90
14378;DHT22;7272;53.668;9.578;2022-09-12T09:30:00;20.90;99.90
14378;DHT22;7272;53.668;9.578;2022-09-12T09:33:04;21.00;99.90
14378;DHT22;7272;53.668;9.578;2022-09-12T09:36:15;21.10;99.90
14378;DHT22;7272;53.668;9.578;2022-09-12T09:39:30;21.10;99.90
14378;DHT22;7272;53.668;9.578;2022-09-12T09:42:42;21.20;99.90
14378;DHT22;7272;53.668;9.578;2022-09-12T09:45:46;21.30;99.90
14378;DHT22;7272;53.668;9.578;2022-09-12T09:48:49;21.40;99.90
14378;DHT22;7272;53.668;9.578;2022-09-12T09:51:52;21.60;99.90
14378;DHT22;7272;53.668;9.578;2022-09-12T09:54:57;21.70;99.90
14378;DHT22;7272;53.668;9.578;2022-09-12T09:57:59;22.00;99.90
14378;DHT22;7272;53.668;9.578;2022-09-12T10:01:11;22.20;99.90
14378;DHT22;7272;53.668;9.578;2022-09-12T10:04:18;22.20;99.90
14378;DHT22;7272;53.668;9.578;2022-09-12T10:07:21;22.30;99.90
14378;DHT22;7272;53.668;9.578;2022-09-12T10:10:23;22.20;99.90
14378;DHT22;7272;53.668;9.578;2022-09-12T10:13:38;22.30;99.90
14378;DHT22;7272;53.668;9.578;2022-09-12T10:16:50;22.50;99.90
14378;DHT22;7272;53.668;9.578;2022-09-12T10:19:53;22.60;99.90
14378;DHT22;7272;53.668;9.578;2022-09-12T10:22:55;22.60;99.90
14378;DHT22;7272;53.668;9.578;2022-09-12T10:26:00;22.60;99.90
14378;DHT22;7272;53.668;9.578;2022-09-12T10:29:10;22.70;99.90
14378;DHT22;7272;53.668;9.578;2022-09-12T10:32:24;22.70;99.90
14378;DHT22;7272;53.668;9.578;2022-09-12T10:35:30;22.60;99.90
14378;DHT22;7272;53.668;9.578;2022-09-12T10:38:48;22.70;99.90
14378;DHT22;7272;53.668;9.578;2022-09-12T10:41:51;22.80;99.90
14378;DHT22;7272;53.668;9.578;2022-09-12T10:44:55;22.70;99.90
14378;DHT22;7272;53.668;9.578;2022-09-12T10:48:00;22.70;99.90
14378;DHT22;7272;53.668;9.578;2022-09-12T10:51:02;22.70;99.90
14378;DHT22;7272;53.668;9.578;2022-09-12T10:54:09;22.70;99.90
14378;DHT22;7272;53.668;9.578;2022-09-12T10:57:48;22.80;99.90
14378;DHT22;7272;53.668;9.578;2022-09-12T11:01:00;22.90;99.90
14378;DHT22;7272;53.668;9.578;2022-09-12T11:04:27;23.10;99.90
14378;DHT22;7272;53.668;9.578;2022-09-12T11:07:39;23.10;99.90
14378;DHT22;7272;53.668;9.578;2022-09-12T11:10:47;23.10;99.90
14378;DHT22;7272;53.668;9.578;2022-09-12T11:14:03;23.10;99.90
14378;DHT22;7272;53.668;9.578;2022-09-12T11:17:15;23.20;99.90
14378;DHT22;7272;53.668;9.578;2022-09-12T11:20:52;23.20;99.90
14378;DHT22;7272;53.668;9.578;2022-09-12T11:24:14;23.00;99.90
14378;DHT22;7272;53.668;9.578;2022-09-12T11:27:36;22.90;99.90
14378;DHT22;7272;53.668;9.578;2022-09-12T11:30:49;22.70;99.90
14378;DHT22;7272;53.668;9.578;2022-09-12T11:33:52;22.70;99.90
14378;DHT22;7272;53.668;9.578;2022-09-12T11:37:07;22.60;99.90
14378;DHT22;7272;53.668;9.578;2022-09-12T11:40:24;22.70;99.90
14378;DHT22;7272;53.668;9.578;2022-09-12T11:43:34;22.70;99.90
14378;DHT22;7272;53.668;9.578;2022-09-12T11:46:39;22.70;99.90
14378;DHT22;7272;53.668;9.578;2022-09-12T11:49:45;22.80;99.90
14378;DHT22;7272;53.668;9.578;2022-09-12T11:52:50;22.90;99.90
14378;DHT22;7272;53.668;9.578;2022-09-12T11:55:56;23.10;99.90
14378;DHT22;7272;53.668;9.578;2022-09-12T11:59:03;23.30;99.90
14378;DHT22;7272;53.668;9.578;2022-09-12T12:02:16;23.40;99.90
14378;DHT22;7272;53.668;9.578;2022-09-12T12:05:23;23.70;99.90
14378;DHT22;7272;53.668;9.578;2022-09-12T12:08:29;23.90;99.90
14378;DHT22;7272;53.668;9.578;2022-09-12T12:11:35;24.00;99.90
14378;DHT22;7272;53.668;9.578;2022-09-12T12:14:41;24.20;99.90
14378;DHT22;7272;53.668;9.578;2022-09-12T12:17:45;24.20;99.90
14378;DHT22;7272;53.668;9.578;2022-09-12T12:21:20;24.20;99.90
14378;DHT22;7272;53.668;9.578;2022-09-12T12:24:28;24.20;99.90
14378;DHT22;7272;53.668;9.578;2022-09-12T12:27:48;24.20;99.90
14378;DHT22;7272;53.668;9.578;2022-09-12T12:30:59;24.10;99.90
14378;DHT22;7272;53.668;9.578;2022-09-12T12:34:21;24.10;99.90
14378;DHT22;7272;53.668;9.578;2022-09-12T12:37:48;24.10;99.90
14378;DHT22;7272;53.668;9.578;2022-09-12T12:40:52;24.10;99.90
14378;DHT22;7272;53.668;9.578;2022-09-12T12:43:54;24.00;99.90
14378;DHT22;7272;53.668;9.578;2022-09-12T12:47:15;24.00;99.90
14378;DHT22;7272;53.668;9.578;2022-09-12T12:50:21;24.00;99.90
14378;DHT22;7272;53.668;9.578;2022-09-12T12:53:27;24.20;99.90
14378;DHT22;7272;53.668;9.578;2022-09-12T12:56:37;24.30;99.90
14378;DHT22;7272;53.668;9.578;2022-09-12T12:59:45;24.40;99.90
14378;DHT22;7272;53.668;9.578;2022-09-12T13:02:51;24.60;99.90
14378;DHT22;7272;53.668;9.578;2022-09-12T13:06:00;24.70;99.90
14378;DHT22;7272;53.668;9.578;2022-09-12T13:09:06;24.60;99.90
14378;DHT22;7272;53.668;9.578;2022-09-12T13:12:16;24.50;99.90
14378;DHT22;7272;53.668;9.578;2022-09-12T13:15:46;24.30;99.90
14378;DHT22;7272;53.668;9.578;2022-09-12T13:18:49;24.20;99.90
14378;DHT22;7272;53.668;9.578;2022-09-12T13:21:55;24.10;99.90
14378;DHT22;7272;53.668;9.578;2022-09-12T13:24:57;24.10;99.90
14378;DHT22;7272;53.668;9.578;2022-09-12T13:28:06;23.90;99.90
14378;DHT22;7272;53.668;9.578;2022-09-12T13:31:20;23.90;99.90
14378;DHT22;7272;53.668;9.578;2022-09-12T13:34:25;23.90;99.90
14378;DHT22;7272;53.668;9.578;2022-09-12T13:37:37;23.90;99.90
14378;DHT22;7272;53.668;9.578;2022-09-12T13:40:52;24.10;99.90
14378;DHT22;7272;53.668;9.578;2022-09-12T13:43:59;24.00;99.90
14378;DHT22;7272;53.668;9.578;2022-09-12T13:47:03;24.00;99.90
14378;DHT22;7272;53.668;9.578;2022-09-12T13:50:07;24.10;99.90
14378;DHT22;7272;53.668;9.578;2022-09-12T13:53:15;24.20;99.90
14378;DHT22;7272;53.668;9.578;2022-09-12T13:56:19;24.30;99.90
14378;DHT22;7272;53.668;9.578;2022-09-12T13:59:22;24.30;99.90
14378;DHT22;7272;53.668;9.578;2022-09-12T14:02:27;24.30;99.90
14378;DHT22;7272;53.668;9.578;2022-09-12T14:05:31;24.30;99.90
14378;DHT22;7272;53.668;9.578;2022-09-12T14:08:32;24.20;99.90
14378;DHT22;7272;53.668;9.578;2022-09-12T14:11:36;24.20;99.90
14378;DHT22;7272;53.668;9.578;2022-09-12T14:14:41;24.30;99.90
14378;DHT22;7272;53.668;9.578;2022-09-12T14:17:48;24.30;99.90
14378;DHT22;7272;53.668;9.578;2022-09-12T14:20:52;24.20;99.90
14378;DHT22;7272;53.668;9.578;2022-09-12T14:23:56;24.00;99.90
14378;DHT22;7272;53.668;9.578;2022-09-12T14:27:00;23.90;99.90
14378;DHT22;7272;53.668;9.578;2022-09-12T14:30:18;23.90;99.90
14378;DHT22;7272;53.668;9.578;2022-09-12T14:33:20;23.80;99.90
14378;DHT22;7272;53.668;9.578;2022-09-12T14:36:24;23.80;99.90
14378;DHT22;7272;53.668;9.578;2022-09-12T14:39:31;23.70;99.90
14378;DHT22;7272;53.668;9.578;2022-09-12T14:42:34;23.70;99.90
14378;DHT22;7272;53.668;9.578;2022-09-12T14:45:37;23.60;99.90
14378;DHT22;7272;53.668;9.578;2022-09-12T14:48:43;23.80;99.90
14378;DHT22;7272;53.668;9.578;2022-09-12T14:51:54;23.80;99.90
14378;DHT22;7272;53.668;9.578;2022-09-12T14:54:58;23.70;99.90
14378;DHT22;7272;53.668;9.578;2022-09-12T14:58:15;23.60;99.90
14378;DHT22;7272;53.668;9.578;2022-09-12T15:01:23;23.60;99.90
14378;DHT22;7272;53.668;9.578;2022-09-12T15:04:38;23.60;99.90
14378;DHT22;7272;53.668;9.578;2022-09-12T15:07:42;23.60;99.90
14378;DHT22;7272;53.668;9.578;2022-09-12T15:10:46;23.60;99.90
14378;DHT22;7272;53.668;9.578;2022-09-12T15:13:48;23.60;99.90
14378;DHT22;7272;53.668;9.578;2022-09-12T15:16:51;23.60;99.90
14378;DHT22;7272;53.668;9.578;2022-09-12T15:19:53;23.60;99.90
14378;DHT22;7272;53.668;9.578;2022-09-12T15:22:55;23.80;99.90
14378;DHT22;7272;53.668;9.578;2022-09-12T15:25:58;23.80;99.90
14378;DHT22;7272;53.668;9.578;2022-09-12T15:29:00;23.80;99.90
14378;DHT22;7272;53.668;9.578;2022-09-12T15:32:04;23.60;99.90
14378;DHT22;7272;53.668;9.578;2022-09-12T15:35:11;23.60;99.90
14378;DHT22;7272;53.668;9.578;2022-09-12T15:38:15;23.50;99.90
14378;DHT22;7272;53.668;9.578;2022-09-12T15:41:19;23.50;99.90
14378;DHT22;7272;53.668;9.578;2022-09-12T15:44:21;23.40;99.90
14378;DHT22;7272;53.668;9.578;2022-09-12T15:47:25;23.30;99.90
14378;DHT22;7272;53.668;9.578;2022-09-12T15:50:27;23.20;99.90
14378;DHT22;7272;53.668;9.578;2022-09-12T15:53:29;23.30;99.90
14378;DHT22;7272;53.668;9.578;2022-09-12T15:56:31;23.30;99.90
14378;DHT22;7272;53.668;9.578;2022-09-12T15:59:34;23.20;99.90
14378;DHT22;7272;53.668;9.578;2022-09-12T16:02:37;23.00;99.90
14378;DHT22;7272;53.668;9.578;2022-09-12T16:05:39;22.90;99.90
14378;DHT22;7272;53.668;9.578;2022-09-12T16:08:41;22.80;99.90
14378;DHT22;7272;53.668;9.578;2022-09-12T16:11:44;23.00;99.90
14378;DHT22;7272;53.668;9.578;2022-09-12T16:14:46;23.00;99.90
14378;DHT22;7272;53.668;9.578;2022-09-12T16:17:50;22.90;99.90
14378;DHT22;7272;53.668;9.578;2022-09-12T16:20:53;22.80;99.90
14378;DHT22;7272;53.668;9.578;2022-09-12T16:23:55;22.70;99.90
14378;DHT22;7272;53.668;9.578;2022-09-12T16:26:57;22.70;99.90
14378;DHT22;7272;53.668;9.578;2022-09-12T16:29:58;22.60;99.90
14378;DHT22;7272;53.668;9.578;2022-09-12T16:33:02;22.70;99.90
14378;DHT22;7272;53.668;9.578;2022-09-12T16:36:06;22.60;99.90
14378;DHT22;7272;53.668;9.578;2022-09-12T16:39:08;22.40;99.90
14378;DHT22;7272;53.668;9.578;2022-09-12T16:42:10;22.30;99.90
14378;DHT22;7272;53.668;9.578;2022-09-12T16:45:13;22.20;99.90
14378;DHT22;7272;53.668;9.578;2022-09-12T16:48:16;22.20;99.90
14378;DHT22;7272;53.668;9.578;2022-09-12T16:51:20;22.30;99.90
14378;DHT22;7272;53.668;9.578;2022-09-12T16:54:22;22.20;99.90
14378;DHT22;7272;53.668;9.578;2022-09-12T16:57:24;22.10;99.90
14378;DHT22;7272;53.668;9.578;2022-09-12T17:00:26;22.00;99.90
14378;DHT22;7272;53.668;9.578;2022-09-12T17:03:30;21.90;99.90
14378;DHT22;7272;53.668;9.578;2022-09-12T17:06:32;22.10;99.90
14378;DHT22;7272;53.668;9.578;2022-09-12T17:09:34;22.20;99.90
14378;DHT22;7272;53.668;9.578;2022-09-12T17:12:36;22.10;99.90
14378;DHT22;7272;53.668;9.578;2022-09-12T17:15:38;21.90;99.90
14378;DHT22;7272;53.668;9.578;2022-09-12T17:18:42;21.80;99.90
14378;DHT22;7272;53.668;9.578;2022-09-12T17:21:44;21.70;99.90
14378;DHT22;7272;53.668;9.578;2022-09-12T17:24:48;21.60;99.90
14378;DHT22;7272;53.668;9.578;2022-09-12T17:27:50;21.70;99.90
14378;DHT22;7272;53.668;9.578;2022-09-12T17:30:54;21.60;99.90
14378;DHT22;7272;53.668;9.578;2022-09-12T17:33:59;21.40;99.90
14378;DHT22;7272;53.668;9.578;2022-09-12T17:37:01;21.30;99.90
14378;DHT22;7272;53.668;9.578;2022-09-12T17:40:04;21.20;99.90
14378;DHT22;7272;53.668;9.578;2022-09-12T17:43:07;21.30;99.90
14378;DHT22;7272;53.668;9.578;2022-09-12T17:46:11;21.40;99.90
14378;DHT22;7272;53.668;9.578;2022-09-12T17:49:16;21.30;99.90
14378;DHT22;7272;53.668;9.578;2022-09-12T17:52:20;21.10;99.90
14378;DHT22;7272;53.668;9.578;2022-09-12T17:55:22;21.00;99.90
14378;DHT22;7272;53.668;9.578;2022-09-12T17:58:24;20.90;99.90
14378;DHT22;7272;53.668;9.578;2022-09-12T18:01:26;20.80;99.90
14378;DHT22;7272;53.668;9.578;2022-09-12T18:04:48;20.80;99.90
14378;DHT22;7272;53.668;9.578;2022-09-12T18:07:51;20.80;99.90
14378;DHT22;7272;53.668;9.578;2022-09-12T18:10:53;20.70;99.90
14378;DHT22;7272;53.668;9.578;2022-09-12T18:13:56;20.70;99.90
14378;DHT22;7272;53.668;9.578;2022-09-12T18:16:58;20.60;99.90
14378;DHT22;7272;53.668;9.578;2022-09-12T18:20:02;20.50;99.90
14378;DHT22;7272;53.668;9.578;2022-09-12T18:23:06;20.50;99.90
14378;DHT22;7272;53.668;9.578;2022-09-12T18:26:09;20.50;99.90
14378;DHT22;7272;53.668;9.578;2022-09-12T18:29:13;20.40;99.90
14378;DHT22;7272;53.668;9.578;2022-09-12T18:32:16;20.40;99.90
14378;DHT22;7272;53.668;9.578;2022-09-12T18:35:19;20.30;99.90
14378;DHT22;7272;53.668;9.578;2022-09-12T18:38:21;20.30;99.90
14378;DHT22;7272;53.668;9.578;2022-09-12T18:41:24;20.30;99.90
14378;DHT22;7272;53.668;9.578;2022-09-12T18:44:26;20.20;99.90
14378;DHT22;7272;53.668;9.578;2022-09-12T18:47:28;20.10;99.90
14378;DHT22;7272;53.668;9.578;2022-09-12T18:50:32;20.10;99.90
14378;DHT22;7272;53.668;9.578;2022-09-12T18:53:34;20.00;99.90
14378;DHT22;7272;53.668;9.578;2022-09-12T18:56:38;20.00;99.90
14378;DHT22;7272;53.668;9.578;2022-09-12T18:59:43;20.00;99.90
14378;DHT22;7272;53.668;9.578;2022-09-12T19:02:45;20.00;99.90
14378;DHT22;7272;53.668;9.578;2022-09-12T19:05:48;19.90;99.90
14378;DHT22;7272;53.668;9.578;2022-09-12T19:08:51;19.80;99.90
14378;DHT22;7272;53.668;9.578;2022-09-12T19:11:53;19.80;99.90
14378;DHT22;7272;53.668;9.578;2022-09-12T19:14:55;19.80;99.90
14378;DHT22;7272;53.668;9.578;2022-09-12T19:17:57;19.70;99.90
14378;DHT22;7272;53.668;9.578;2022-09-12T19:21:01;19.80;99.90
14378;DHT22;7272;53.668;9.578;2022-09-12T19:24:05;19.80;99.90
14378;DHT22;7272;53.668;9.578;2022-09-12T19:27:09;19.70;99.90
14378;DHT22;7272;53.668;9.578;2022-09-12T19:30:13;19.60;99.90
14378;DHT22;7272;53.668;9.578;2022-09-12T19:33:14;19.60;99.90
14378;DHT22;7272;53.668;9.578;2022-09-12T19:36:19;19.50;99.90
14378;DHT22;7272;53.668;9.578;2022-09-12T19:39:21;19.60;99.90
14378;DHT22;7272;53.668;9.578;2022-09-12T19:42:23;19.50;99.90
14378;DHT22;7272;53.668;9.578;2022-09-12T19:45:25;19.50;99.90
14378;DHT22;7272;53.668;9.578;2022-09-12T19:48:28;19.40;99.90
14378;DHT22;7272;53.668;9.578;2022-09-12T19:51:31;19.40;99.90